createdAt,value
2022-08-20T00:02:10.120Z,5.13
2022-08-20T00:04:37.157Z,5.97
2022-08-20T00:07:06.587Z,6.82
2022-08-20T00:09:36.427Z,5.43
2022-08-20T00:12:07.518Z,6.20
2022-08-20T00:14:35.213Z,4.38
2022-08-20T00:17:03.956Z,5.57
2022-08-20T00:19:30.766Z,5.82
2022-08-20T00:21:58.402Z,6.60
2022-08-20T00:24:25.724Z,6.03
2022-08-20T00:26:52.939Z,6.38
2022-08-20T00:29:20.530Z,5.88
2022-08-20T00:31:50.419Z,6.85
2022-08-20T00:34:17.239Z,6.20
2022-08-20T00:36:43.918Z,6.75
2022-08-20T00:39:10.794Z,6.93
2022-08-20T00:41:37.557Z,6.80
2022-08-20T00:44:09.994Z,6.85
2022-08-20T00:46:37.861Z,6.50
2022-08-20T00:49:08.586Z,7.10
2022-08-20T00:51:48.120Z,6.07
2022-08-20T00:54:20.859Z,7.35
2022-08-20T00:56:51.105Z,7.60
2022-08-20T00:59:30.149Z,7.00
2022-08-20T01:01:57.857Z,7.20
2022-08-20T01:04:31.455Z,6.82
2022-08-20T01:06:58.074Z,7.75
2022-08-20T01:09:33.434Z,7.28
2022-08-20T01:12:14.501Z,7.18
2022-08-20T01:14:45.526Z,7.05
2022-08-20T01:17:17.803Z,6.80
2022-08-20T01:19:53.170Z,7.22
2022-08-20T01:22:51.417Z,7.25
2022-08-20T01:25:28.419Z,7.70
2022-08-20T01:27:56.380Z,6.82
2022-08-20T01:30:27.013Z,7.18
2022-08-20T01:32:53.607Z,6.90
2022-08-20T01:35:22.421Z,7.50
2022-08-20T01:37:49.054Z,7.03
2022-08-20T01:40:24.162Z,6.45
2022-08-20T01:42:59.205Z,7.00
2022-08-20T01:45:30.317Z,8.02
2022-08-20T01:47:58.527Z,8.73
2022-08-20T01:50:29.107Z,7.90
2022-08-20T01:53:10.046Z,8.18
2022-08-20T01:55:37.671Z,8.55
2022-08-20T01:58:04.484Z,7.65
2022-08-20T02:00:32.615Z,7.55
2022-08-20T02:02:59.210Z,8.27
2022-08-20T02:05:30.410Z,8.52
2022-08-20T02:07:57.871Z,8.82
2022-08-20T02:10:25.061Z,7.75
2022-08-20T02:12:51.667Z,7.05
2022-08-20T02:15:34.877Z,8.55
2022-08-20T02:18:10.423Z,8.90
2022-08-20T02:20:37.689Z,8.88
2022-08-20T02:23:05.885Z,9.40
2022-08-20T02:25:38.142Z,9.23
2022-08-20T02:28:12.785Z,8.32
2022-08-20T02:33:10.835Z,9.25
2022-08-20T02:35:40.081Z,10.23
2022-08-20T02:38:06.735Z,9.18
2022-08-20T02:40:33.316Z,10.85
2022-08-20T02:43:01.735Z,10.48
2022-08-20T02:45:31.526Z,10.35
2022-08-20T02:47:59.118Z,10.73
2022-08-20T02:50:27.622Z,10.23
2022-08-20T02:52:54.604Z,10.55
2022-08-20T02:55:25.980Z,10.10
2022-08-20T02:58:00.261Z,14.67
2022-08-20T03:00:37.897Z,14.50
2022-08-20T03:03:08.252Z,14.52
2022-08-20T03:05:36.330Z,13.70
2022-08-20T03:08:07.411Z,13.75
2022-08-20T03:10:36.461Z,14.15
2022-08-20T03:13:03.608Z,14.77
2022-08-20T03:15:32.591Z,13.88
2022-08-20T03:17:59.694Z,14.27
2022-08-20T03:20:27.998Z,13.32
2022-08-20T03:22:54.992Z,13.82
2022-08-20T03:25:22.494Z,13.85
2022-08-20T03:27:54.190Z,15.15
2022-08-20T03:30:22.520Z,16.33
2022-08-20T03:32:49.171Z,14.80
2022-08-20T03:35:16.981Z,14.30
2022-08-20T03:37:45.716Z,14.60
2022-08-20T03:40:19.228Z,15.02
2022-08-20T03:42:45.862Z,15.13
2022-08-20T03:45:16.066Z,15.70
2022-08-20T03:47:47.353Z,11.95
2022-08-20T03:50:14.624Z,12.70
2022-08-20T03:52:49.671Z,12.00
2022-08-20T03:55:16.328Z,10.73
2022-08-20T03:57:53.538Z,11.48
2022-08-20T04:00:33.625Z,11.55
2022-08-20T04:03:00.925Z,10.38
2022-08-20T04:05:29.618Z,11.90
2022-08-20T04:07:58.415Z,11.50
2022-08-20T04:10:30.598Z,13.60
2022-08-20T04:12:57.411Z,11.35
2022-08-20T04:15:24.627Z,12.50
2022-08-20T04:17:51.403Z,13.27
2022-08-20T04:20:23.915Z,10.98
2022-08-20T04:22:59.282Z,13.32
2022-08-20T04:25:35.957Z,12.68
2022-08-20T04:28:06.563Z,11.93
2022-08-20T04:30:34.427Z,12.18
2022-08-20T04:33:01.447Z,12.52
2022-08-20T04:35:29.563Z,11.00
2022-08-20T04:38:09.013Z,12.70
2022-08-20T04:40:56.041Z,12.35
2022-08-20T04:43:28.836Z,11.13
2022-08-20T04:45:57.570Z,14.77
2022-08-20T04:48:27.051Z,13.15
2022-08-20T04:50:54.192Z,14.00
2022-08-20T04:53:25.887Z,14.52
2022-08-20T04:55:54.968Z,14.20
2022-08-20T04:58:30.863Z,15.20
2022-08-20T05:01:01.675Z,15.55
2022-08-20T05:03:28.984Z,13.95
2022-08-20T05:05:56.965Z,13.20
2022-08-20T05:08:25.623Z,13.43
2022-08-20T05:10:59.899Z,13.75
2022-08-20T05:13:43.452Z,12.82
2022-08-20T05:16:10.193Z,13.98
2022-08-20T05:18:37.176Z,13.13
2022-08-20T05:21:06.905Z,11.68
2022-08-20T05:23:41.468Z,11.18
2022-08-20T05:28:54.448Z,11.10
2022-08-20T05:31:32.388Z,12.05
2022-08-20T05:34:09.786Z,12.13
2022-08-20T05:36:49.392Z,13.32
2022-08-20T05:39:18.401Z,12.45
2022-08-20T05:41:45.351Z,13.25
2022-08-20T05:44:14.048Z,15.10
2022-08-20T05:46:43.604Z,14.63
2022-08-20T05:49:13.527Z,13.43
2022-08-20T05:51:40.157Z,16.15
2022-08-20T05:54:07.549Z,15.27
2022-08-20T05:56:34.912Z,14.25
2022-08-20T05:59:04.097Z,14.32
2022-08-20T06:01:32.304Z,16.15
2022-08-20T06:04:17.827Z,15.25
2022-08-20T06:06:47.107Z,14.77
2022-08-20T06:09:28.597Z,13.63
2022-08-20T06:14:29.720Z,13.15
2022-08-20T06:17:13.452Z,13.70
2022-08-20T06:19:44.546Z,13.07
2022-08-20T06:22:19.207Z,12.75
2022-08-20T06:24:51.515Z,23.63
2022-08-20T06:27:18.630Z,12.32
2022-08-20T06:29:45.749Z,11.85
2022-08-20T06:32:12.836Z,10.75
2022-08-20T06:34:50.454Z,11.13
2022-08-20T06:37:31.269Z,9.90
2022-08-20T06:40:12.050Z,9.88
2022-08-20T06:42:47.864Z,8.82
2022-08-20T06:45:21.674Z,8.40
2022-08-20T06:47:48.353Z,10.23
2022-08-20T06:50:18.999Z,10.00
2022-08-20T06:53:03.349Z,9.95
2022-08-20T06:55:30.629Z,10.43
2022-08-20T06:58:01.962Z,9.55
2022-08-20T07:00:31.845Z,10.25
2022-08-20T07:03:00.613Z,10.05
2022-08-20T07:05:32.587Z,10.32
2022-08-20T07:07:59.484Z,9.15
2022-08-20T07:10:27.171Z,8.40
2022-08-20T07:12:54.568Z,8.07
2022-08-20T07:15:23.352Z,7.55
2022-08-20T07:18:01.127Z,7.82
2022-08-20T07:20:29.089Z,10.70
2022-08-20T07:22:56.300Z,8.27
2022-08-20T07:25:23.266Z,9.82
2022-08-20T07:28:03.408Z,8.55
2022-08-20T07:30:56.757Z,8.88
2022-08-20T07:33:25.395Z,8.57
2022-08-20T07:35:52.069Z,8.13
2022-08-20T07:38:24.478Z,8.32
2022-08-20T07:40:53.582Z,8.23
2022-08-20T07:43:21.599Z,8.00
2022-08-20T07:45:48.177Z,20.20
2022-08-20T07:48:30.923Z,8.73
2022-08-20T07:51:04.294Z,7.30
2022-08-20T07:53:36.023Z,7.95
2022-08-20T07:56:09.135Z,7.93
2022-08-20T07:58:38.427Z,6.55
2022-08-20T08:01:07.003Z,7.05
2022-08-20T08:03:40.449Z,6.47
2022-08-20T08:06:17.234Z,6.95
2022-08-20T08:09:05.233Z,7.30
2022-08-20T08:11:34.933Z,6.90
2022-08-20T08:14:02.896Z,5.85
2022-08-20T08:16:32.621Z,5.88
2022-08-20T08:19:01.336Z,6.00
2022-08-20T08:21:30.039Z,5.93
2022-08-20T08:23:56.979Z,6.68
2022-08-20T08:26:23.957Z,6.57
2022-08-20T08:28:50.842Z,6.35
2022-08-20T08:31:17.513Z,7.07
2022-08-20T08:33:44.182Z,6.70
2022-08-20T08:36:13.626Z,6.97
2022-08-20T08:38:43.019Z,6.95
2022-08-20T08:41:36.656Z,6.82
2022-08-20T08:44:14.437Z,6.32
2022-08-20T08:46:46.410Z,10.27
2022-08-20T08:49:20.294Z,6.63
2022-08-20T08:52:07.204Z,5.85
2022-08-20T08:54:35.410Z,6.25
2022-08-20T08:57:02.823Z,7.50
2022-08-20T08:59:52.171Z,6.40
2022-08-20T09:02:23.650Z,6.18
2022-08-20T09:04:51.680Z,6.30
2022-08-20T09:07:18.371Z,5.85
2022-08-20T09:09:46.950Z,6.10
2022-08-20T09:12:19.998Z,7.68
2022-08-20T09:14:48.721Z,5.72
2022-08-20T09:17:16.884Z,5.80
2022-08-20T09:19:43.782Z,6.70
2022-08-20T09:22:16.519Z,6.93
2022-08-20T09:24:44.268Z,6.05
2022-08-20T09:27:12.247Z,7.47
2022-08-20T09:29:39.922Z,6.20
2022-08-20T09:32:11.063Z,6.97
2022-08-20T09:34:44.580Z,6.22
2022-08-20T09:37:12.253Z,6.55
2022-08-20T09:39:39.360Z,7.28
2022-08-20T09:42:18.239Z,6.72
2022-08-20T09:44:45.147Z,6.60
2022-08-20T09:47:12.067Z,6.10
2022-08-20T09:49:39.203Z,5.97
2022-08-20T09:52:08.751Z,6.70
2022-08-20T09:54:37.571Z,5.10
2022-08-20T09:57:07.714Z,6.47
2022-08-20T09:59:35.229Z,4.85
2022-08-20T10:02:02.558Z,5.20
2022-08-20T10:04:29.310Z,3.97
2022-08-20T10:06:56.187Z,4.90
2022-08-20T10:09:23.290Z,4.93
2022-08-20T10:11:50.023Z,4.55
2022-08-20T10:14:16.777Z,5.57
2022-08-20T10:16:43.607Z,4.80
2022-08-20T10:19:10.193Z,5.97
2022-08-20T10:21:39.009Z,4.95
2022-08-20T10:24:06.192Z,4.55
2022-08-20T10:26:33.073Z,5.72
2022-08-20T10:28:59.761Z,4.95
2022-08-20T10:31:26.401Z,5.63
2022-08-20T10:33:53.089Z,5.25
2022-08-20T10:36:20.167Z,4.88
2022-08-20T10:38:49.021Z,5.03
2022-08-20T10:41:15.655Z,5.78
2022-08-20T10:43:42.221Z,4.97
2022-08-20T10:46:09.345Z,5.72
2022-08-20T10:48:35.955Z,5.55
2022-08-20T10:51:02.785Z,5.28
2022-08-20T10:53:29.459Z,6.57
2022-08-20T10:55:57.871Z,6.28
2022-08-20T10:58:25.830Z,10.07
2022-08-20T11:01:02.291Z,6.38
2022-08-20T11:03:28.966Z,6.82
2022-08-20T11:05:55.574Z,6.18
2022-08-20T11:08:25.140Z,5.95
2022-08-20T11:11:01.243Z,6.55
2022-08-20T11:13:27.854Z,5.38
2022-08-20T11:15:54.463Z,6.40
2022-08-20T11:18:21.148Z,5.88
2022-08-20T11:20:47.871Z,6.70
2022-08-20T11:23:14.459Z,7.22
2022-08-20T11:25:41.147Z,7.55
2022-08-20T11:28:07.958Z,6.80
2022-08-20T11:30:36.805Z,7.38
2022-08-20T11:33:04.078Z,10.05
2022-08-20T11:35:49.980Z,7.55
2022-08-20T11:38:18.360Z,7.25
2022-08-20T11:40:46.973Z,6.45
2022-08-20T11:43:15.502Z,6.63
2022-08-20T11:45:47.854Z,6.07
2022-08-20T11:48:14.729Z,6.75
2022-08-20T11:50:41.428Z,7.20
2022-08-20T11:53:08.213Z,8.30
2022-08-20T11:55:34.993Z,6.40
2022-08-20T11:58:02.082Z,6.50
2022-08-20T12:00:32.550Z,6.85
2022-08-20T12:03:05.356Z,6.13
2022-08-20T12:05:32.576Z,6.43
2022-08-20T12:08:02.180Z,5.75
2022-08-20T12:10:29.657Z,6.20
2022-08-20T12:12:57.347Z,7.95
2022-08-20T12:15:26.830Z,6.28
2022-08-20T12:17:54.473Z,6.00
2022-08-20T12:20:21.876Z,6.90
2022-08-20T12:22:48.624Z,8.20
2022-08-20T12:25:15.407Z,5.97
2022-08-20T12:27:42.523Z,7.47
2022-08-20T12:30:15.536Z,6.05
2022-08-20T12:32:42.669Z,6.53
2022-08-20T12:35:10.887Z,6.85
2022-08-20T12:37:38.122Z,5.82
2022-08-20T12:40:09.411Z,6.85
2022-08-20T12:42:36.179Z,6.47
2022-08-20T12:45:03.438Z,6.18
2022-08-20T12:47:34.038Z,5.55
2022-08-20T12:50:04.698Z,5.50
2022-08-20T12:52:33.102Z,6.50
2022-08-20T12:55:01.340Z,5.68
2022-08-20T12:57:30.647Z,5.43
2022-08-20T12:59:59.155Z,5.75
2022-08-20T13:02:26.543Z,5.80
2022-08-20T13:04:53.315Z,5.93
2022-08-20T13:07:21.122Z,9.15
2022-08-20T13:09:47.924Z,11.90
2022-08-20T13:12:14.607Z,7.75
2022-08-20T13:14:42.166Z,7.70
2022-08-20T13:17:09.222Z,6.80
2022-08-20T13:19:37.547Z,6.47
2022-08-20T13:22:05.251Z,6.60
2022-08-20T13:24:32.213Z,5.68
2022-08-20T13:27:15.733Z,5.90
2022-08-20T13:29:50.079Z,7.07
2022-08-20T13:32:17.243Z,6.10
2022-08-20T13:34:45.452Z,6.07
2022-08-20T13:37:25.566Z,7.18
2022-08-20T13:39:57.201Z,6.22
2022-08-20T13:42:24.295Z,5.45
2022-08-20T13:44:51.046Z,5.68
2022-08-20T13:47:34.255Z,5.72
2022-08-20T13:50:22.159Z,5.93
2022-08-20T13:52:48.748Z,6.75
2022-08-20T13:55:21.241Z,5.18
2022-08-20T13:57:48.181Z,6.82
2022-08-20T14:00:21.926Z,5.88
2022-08-20T14:02:58.489Z,5.68
2022-08-20T14:05:25.286Z,6.57
2022-08-20T14:07:52.232Z,5.88
2022-08-20T14:10:24.163Z,7.78
2022-08-20T14:12:51.595Z,7.05
2022-08-20T14:15:19.525Z,5.80
2022-08-20T14:17:55.836Z,5.88
2022-08-20T14:20:26.025Z,6.60
2022-08-20T14:22:56.776Z,6.50
2022-08-20T14:25:25.399Z,10.93
2022-08-20T14:27:53.395Z,9.32
2022-08-20T14:30:27.255Z,8.32
2022-08-20T14:32:54.654Z,6.35
2022-08-20T14:35:21.756Z,7.10
2022-08-20T14:38:00.355Z,6.43
2022-08-20T14:40:28.899Z,7.50
2022-08-20T14:42:58.502Z,6.85
2022-08-20T14:45:25.766Z,6.57
2022-08-20T14:47:57.035Z,6.78
2022-08-20T14:50:34.525Z,6.57
2022-08-20T14:53:02.156Z,6.68
2022-08-20T14:55:35.966Z,6.00
2022-08-20T14:58:07.248Z,6.50
2022-08-20T15:00:34.697Z,6.05
2022-08-20T15:03:01.381Z,7.13
2022-08-20T15:05:28.217Z,6.88
2022-08-20T15:07:58.156Z,7.22
2022-08-20T15:10:29.893Z,6.82
2022-08-20T15:12:57.242Z,7.75
2022-08-20T15:15:25.084Z,7.47
2022-08-20T15:17:55.144Z,7.78
2022-08-20T15:20:25.564Z,7.60
2022-08-20T15:22:54.896Z,8.50
2022-08-20T15:25:25.167Z,7.57
2022-08-20T15:27:54.675Z,7.05
2022-08-20T15:30:25.312Z,6.03
2022-08-20T15:32:55.341Z,5.72
2022-08-20T15:35:24.840Z,6.38
2022-08-20T15:37:51.613Z,6.78
2022-08-20T15:40:28.530Z,6.97
2022-08-20T15:43:00.045Z,6.93
2022-08-20T15:45:27.796Z,6.32
2022-08-20T15:48:09.656Z,6.65
2022-08-20T15:50:48.271Z,7.38
2022-08-20T15:53:56.616Z,6.90
2022-08-20T15:56:37.169Z,5.65
2022-08-20T15:59:14.288Z,5.82
2022-08-20T16:01:46.779Z,6.68
2022-08-20T16:04:45.813Z,5.78
2022-08-20T16:07:50.715Z,6.65
2022-08-20T16:10:26.808Z,6.03
2022-08-20T16:12:57.985Z,5.65
2022-08-20T16:15:30.471Z,4.97
2022-08-20T16:18:09.284Z,5.03
2022-08-20T16:20:48.072Z,5.05
2022-08-20T16:23:21.536Z,5.30
2022-08-20T16:26:20.976Z,4.57
2022-08-20T16:29:01.699Z,4.75
2022-08-20T16:31:34.227Z,5.65
2022-08-20T16:34:39.650Z,6.07
2022-08-20T16:37:31.026Z,5.68
2022-08-20T16:40:09.731Z,6.25
2022-08-20T16:42:42.465Z,5.57
2022-08-20T16:45:30.400Z,5.20
2022-08-20T16:48:04.378Z,5.57
2022-08-20T16:50:46.285Z,5.85
2022-08-20T16:53:23.914Z,6.97
2022-08-20T16:55:50.623Z,6.40
2022-08-20T16:58:17.456Z,7.47
2022-08-20T17:00:45.709Z,6.30
2022-08-20T17:03:38.549Z,5.97
2022-08-20T17:06:27.471Z,7.05
2022-08-20T17:08:55.073Z,5.95
2022-08-20T17:11:31.085Z,6.40
2022-08-20T17:14:06.823Z,6.95
2022-08-20T17:16:37.337Z,6.13
2022-08-20T17:19:14.001Z,6.22
2022-08-20T17:21:41.635Z,6.63
2022-08-20T17:24:25.431Z,9.88
2022-08-20T17:27:03.518Z,15.32
2022-08-20T17:29:32.934Z,7.43
2022-08-20T17:32:09.262Z,7.82
2022-08-20T17:34:49.744Z,8.55
2022-08-20T17:37:33.538Z,7.97
2022-08-20T17:40:16.086Z,7.30
2022-08-20T17:43:01.507Z,7.10
2022-08-20T17:45:37.924Z,8.68
2022-08-20T17:48:18.173Z,7.18
2022-08-20T17:50:44.887Z,8.05
2022-08-20T17:53:23.174Z,7.60
2022-08-20T17:55:54.994Z,7.72
2022-08-20T17:58:54.037Z,6.30
2022-08-20T18:01:22.919Z,7.20
2022-08-20T18:03:51.880Z,7.35
2022-08-20T18:06:50.890Z,8.20
2022-08-20T18:09:46.746Z,7.68
2022-08-20T18:12:34.661Z,7.43
2022-08-20T18:15:04.303Z,6.15
2022-08-20T18:17:34.006Z,6.20
2022-08-20T18:20:18.567Z,6.65
2022-08-20T18:22:57.002Z,6.00
2022-08-20T18:25:33.371Z,7.78
2022-08-20T18:28:18.433Z,7.93
2022-08-20T18:30:52.250Z,6.25
2022-08-20T18:33:45.787Z,7.10
2022-08-20T18:36:26.383Z,7.75
2022-08-20T18:39:06.830Z,6.90
2022-08-20T18:41:38.915Z,7.97
2022-08-20T18:44:26.304Z,7.72
2022-08-20T18:46:59.198Z,8.23
2022-08-20T18:49:38.300Z,7.93
2022-08-20T18:52:12.955Z,8.25
2022-08-20T18:54:43.281Z,9.07
2022-08-20T18:57:26.367Z,9.07
2022-08-20T19:00:17.433Z,8.05
2022-08-20T19:03:08.320Z,8.57
2022-08-20T19:06:05.916Z,9.13
2022-08-20T19:08:53.860Z,8.05
2022-08-20T19:11:46.492Z,7.63
2022-08-20T19:14:37.389Z,8.40
2022-08-20T19:17:09.977Z,7.63
2022-08-20T19:19:37.955Z,8.48
2022-08-20T19:22:05.315Z,8.02
2022-08-20T19:24:35.371Z,8.25
2022-08-20T19:27:08.309Z,7.18
2022-08-20T19:29:42.639Z,6.95
2022-08-20T19:32:19.526Z,8.88
2022-08-20T19:34:59.582Z,8.73
2022-08-20T19:37:40.246Z,9.30
2022-08-20T19:40:28.791Z,8.57
2022-08-20T19:42:57.368Z,8.40
2022-08-20T19:45:27.637Z,8.20
2022-08-20T19:48:13.816Z,7.32
2022-08-20T19:50:56.819Z,7.32
2022-08-20T19:53:30.079Z,7.25
2022-08-20T19:55:59.201Z,8.30
2022-08-20T19:58:27.191Z,7.00
2022-08-20T20:00:55.976Z,8.07
2022-08-20T20:03:29.435Z,6.57
2022-08-20T20:06:17.289Z,8.15
2022-08-20T20:08:53.095Z,8.10
2022-08-20T20:11:24.465Z,7.38
2022-08-20T20:13:51.138Z,7.47
2022-08-20T20:16:21.213Z,8.13
2022-08-20T20:19:03.801Z,8.45
2022-08-20T20:21:42.007Z,8.15
2022-08-20T20:24:09.819Z,8.10
2022-08-20T20:26:40.273Z,10.40
2022-08-20T20:29:23.124Z,9.57
2022-08-20T20:31:58.618Z,9.50
2022-08-20T20:34:31.676Z,9.25
2022-08-20T20:37:06.246Z,8.88
2022-08-20T20:42:08.047Z,7.88
2022-08-20T20:44:40.514Z,9.65
2022-08-20T20:47:19.283Z,9.25
2022-08-20T20:49:55.583Z,9.70
2022-08-20T20:52:28.607Z,8.80
2022-08-20T20:55:26.647Z,9.45
2022-08-20T20:57:53.946Z,9.45
2022-08-20T21:00:23.334Z,9.23
2022-08-20T21:02:50.061Z,9.50
2022-08-20T21:05:18.871Z,9.73
2022-08-20T21:07:50.447Z,9.63
2022-08-20T21:10:19.471Z,9.65
2022-08-20T21:12:50.426Z,9.88
2022-08-20T21:15:19.808Z,10.35
2022-08-20T21:17:46.473Z,8.85
2022-08-20T21:20:13.189Z,9.38
2022-08-20T21:22:39.851Z,9.55
2022-08-20T21:25:07.590Z,9.65
2022-08-20T21:27:34.985Z,8.95
2022-08-20T21:30:04.446Z,9.70
2022-08-20T21:32:31.051Z,9.02
2022-08-20T21:34:57.637Z,10.77
2022-08-20T21:37:24.259Z,10.05
2022-08-20T21:39:50.919Z,9.95
2022-08-20T21:42:22.212Z,9.70
2022-08-20T21:44:56.507Z,8.93
2022-08-20T21:47:23.119Z,9.57
2022-08-20T21:49:49.727Z,8.70
2022-08-20T21:52:16.403Z,9.30
2022-08-20T21:54:43.021Z,8.50
2022-08-20T21:57:18.347Z,7.82
2022-08-20T21:59:45.070Z,9.10
2022-08-20T22:02:11.807Z,8.68
2022-08-20T22:04:38.573Z,9.05
2022-08-20T22:07:05.750Z,9.38
2022-08-20T22:09:33.162Z,9.05
2022-08-20T22:12:03.864Z,8.82
2022-08-20T22:14:31.217Z,8.93
2022-08-20T22:16:58.018Z,11.05
2022-08-20T22:19:25.062Z,10.40
2022-08-20T22:21:53.409Z,8.82
2022-08-20T22:24:20.180Z,7.80
2022-08-20T22:26:46.760Z,8.90
2022-08-20T22:29:13.488Z,9.77
2022-08-20T22:31:42.956Z,8.90
2022-08-20T22:34:12.890Z,9.00
2022-08-20T22:36:39.794Z,8.15
2022-08-20T22:39:07.558Z,7.47
2022-08-20T22:41:35.498Z,7.82
2022-08-20T22:44:02.766Z,8.07
2022-08-20T22:46:37.962Z,8.35
2022-08-20T22:49:07.005Z,7.93
2022-08-20T22:51:38.711Z,8.18
2022-08-20T22:54:08.619Z,8.20
2022-08-20T22:56:35.263Z,8.93
2022-08-20T22:59:02.302Z,9.05
2022-08-20T23:01:29.525Z,9.25
2022-08-20T23:04:22.242Z,9.23
2022-08-20T23:06:49.074Z,11.55
2022-08-20T23:09:15.749Z,11.48
2022-08-20T23:11:48.058Z,12.18
2022-08-20T23:14:14.748Z,9.93
2022-08-20T23:16:44.473Z,9.77
2022-08-20T23:19:16.701Z,9.73
2022-08-20T23:21:43.320Z,11.93
2022-08-20T23:24:14.166Z,10.38
2022-08-20T23:26:41.583Z,11.13
2022-08-20T23:29:22.434Z,9.48
2022-08-20T23:31:52.317Z,10.10
2022-08-20T23:34:19.005Z,9.93
2022-08-20T23:36:45.726Z,9.77
2022-08-20T23:39:12.810Z,9.98
2022-08-20T23:41:47.556Z,9.45
2022-08-20T23:44:26.333Z,7.95
2022-08-20T23:46:56.168Z,10.85
2022-08-20T23:49:22.862Z,10.75
2022-08-20T23:51:49.436Z,9.25
2022-08-20T23:54:16.061Z,10.23
2022-08-20T23:56:42.718Z,9.88
2022-08-20T23:59:09.416Z,8.88
